Time;durP1;ratioP1;P1;durP2;ratioP2;P2;SDS_P1;SDS_P2;PMS_P1;PMS_P2;Temp;Humidity;BMP_temperature;BMP_pressure;BME280_temperature;BME280_humidity;BME280_pressure;Samples;Min_cycle;Max_cycle;Signal;HPM_P1;HPM_P2
2022/03/24 00:01:45;;;;;;;25.60;13.43;;;8.10;83.40;;;;;;5025831;28;20044;-88
2022/03/24 00:04:11;;;;;;;24.02;13.45;;;;;;;;;;5016400;28;20769;-88
2022/03/24 00:06:37;;;;;;;21.98;12.93;;;;;;;;;;5010873;28;20171;-86
2022/03/24 00:09:04;;;;;;;23.15;13.80;;;;;;;;;;5008565;28;20033;-89
2022/03/24 00:11:30;;;;;;;25.08;14.07;;;8.30;85.50;;;;;;5013048;28;20056;-85
2022/03/24 00:13:56;;;;;;;24.40;12.52;;;;;;;;;;5027530;28;20072;-88
2022/03/24 00:16:23;;;;;;;35.03;15.98;;;;;;;;;;5011177;28;20124;-90
2022/03/24 00:18:50;;;;;;;25.10;13.02;;;8.10;89.50;;;;;;5027624;28;20059;-89
2022/03/24 00:21:16;;;;;;;23.30;13.05;;;;;;;;;;5017650;28;20498;-89
2022/03/24 00:23:45;;;;;;;24.20;13.18;;;8.10;90.60;;;;;;5018031;28;20524;-88
2022/03/24 00:26:12;;;;;;;24.33;13.10;;;;;;;;;;5048665;28;20037;-86
2022/03/24 00:28:38;;;;;;;27.98;13.60;;;;;;;;;;5029622;28;20051;-87
2022/03/24 00:31:05;;;;;;;21.98;13.02;;;;;;;;;;5044941;28;20040;-88
2022/03/24 00:33:32;;;;;;;23.30;13.30;;;8.00;91.00;;;;;;5014404;28;20076;-87
2022/03/24 00:35:59;;;;;;;22.42;13.30;;;;;;;;;;5034638;28;20051;-86
2022/03/24 00:38:26;;;;;;;21.60;12.27;;;;;;;;;;5014136;28;20037;-87
2022/03/24 00:40:52;;;;;;;18.58;12.10;;;;;;;;;;5028555;28;20024;-88
2022/03/24 00:43:18;;;;;;;26.35;12.75;;;;;;;;;;5036217;28;20040;-87
2022/03/24 00:45:47;;;;;;;24.58;14.15;;;;;;;;;;5015627;28;20208;-89
2022/03/24 00:48:13;;;;;;;22.60;13.05;;;;;;;;;;4997402;28;20037;-90
2022/03/24 00:50:39;;;;;;;19.92;11.88;;;8.00;91.50;;;;;;5019971;28;20158;-89
2022/03/24 00:53:05;;;;;;;24.77;13.00;;;;;;;;;;4995040;28;20037;-87
2022/03/24 00:55:34;;;;;;;21.58;12.48;;;;;;;;;;4999666;28;20037;-87
2022/03/24 00:58:00;;;;;;;19.92;10.95;;;;;;;;;;5004771;28;20033;-88
2022/03/24 01:00:26;;;;;;;17.98;10.77;;;7.80;92.40;;;;;;5000169;28;20048;-90
2022/03/24 01:02:53;;;;;;;17.02;10.38;;;7.80;93.40;;;;;;4999862;28;20735;-88
2022/03/24 01:05:21;;;;;;;20.88;11.70;;;7.70;94.00;;;;;;4998845;28;20114;-88
2022/03/24 01:07:49;;;;;;;24.40;11.68;;;;;;;;;;4994499;28;20033;-90
2022/03/24 01:10:16;;;;;;;18.27;10.52;;;7.70;94.40;;;;;;5013583;28;20057;-88
2022/03/24 01:12:45;;;;;;;17.85;10.73;;;7.70;94.90;;;;;;5002034;28;20405;-87
2022/03/24 01:15:14;;;;;;;21.35;12.60;;;7.70;94.40;;;;;;5014871;28;20128;-87
2022/03/24 01:17:40;;;;;;;22.85;13.13;;;;;;;;;;5019137;28;20037;-86
2022/03/24 01:20:07;;;;;;;21.30;12.07;;;7.60;95.20;;;;;;5015217;28;20044;-87
2022/03/24 01:22:33;;;;;;;18.20;11.43;;;;;;;;;;5015003;28;20104;-89
2022/03/24 01:24:59;;;;;;;18.85;11.38;;;7.50;95.70;;;;;;5019876;28;20037;-87
2022/03/24 01:27:26;;;;;;;19.65;11.85;;;;;;;;;;5006747;28;20037;-87
2022/03/24 01:29:59;;;;;;;21.05;11.55;;;7.40;96.60;;;;;;5027396;28;20360;-87
2022/03/24 01:32:28;;;;;;;20.38;11.27;;;7.40;96.60;;;;;;5014448;28;20521;-88
2022/03/24 01:34:55;;;;;;;23.90;11.70;;;8.30;97.10;;;;;;5038202;28;20101;-87
2022/03/24 01:37:23;;;;;;;19.98;11.82;;;7.30;96.80;;;;;;5036607;28;20141;-88
2022/03/24 01:39:49;;;;;;;24.52;12.90;;;;;;;;;;5015554;28;20041;-89
2022/03/24 01:42:18;;;;;;;18.20;11.80;;;7.30;97.20;;;;;;5033379;28;20889;-89
2022/03/24 01:44:48;;;;;;;19.38;12.02;;;7.20;97.80;;;;;;5024574;28;20243;-86
2022/03/24 01:47:14;;;;;;;24.80;12.52;;;7.20;98.20;;;;;;5016863;28;20060;-89
2022/03/24 01:49:42;;;;;;;24.83;13.88;;;7.20;98.40;;;;;;5020105;28;20033;-86
2022/03/24 01:52:10;;;;;;;21.65;12.50;;;7.20;98.40;;;;;;5022627;28;20036;-89
2022/03/24 01:54:40;;;;;;;23.02;13.38;;;7.10;99.20;;;;;;5019537;28;20040;-88
2022/03/24 01:57:08;;;;;;;23.10;13.38;;;7.00;99.40;;;;;;5026274;28;20059;-89
2022/03/24 01:59:35;;;;;;;21.35;12.50;;;;;;;;;;5033300;28;20037;-87
2022/03/24 02:02:01;;;;;;;25.55;14.27;;;;;;;;;;5052724;28;20027;-87
2022/03/24 02:04:30;;;;;;;23.38;14.10;;;;;;;;;;5035612;28;20045;-86
2022/03/24 02:06:56;;;;;;;23.83;13.38;;;;;;;;;;5072268;28;20017;-90
2022/03/24 02:09:23;;;;;;;22.70;13.45;;;6.90;99.90;;;;;;5051298;28;20024;-86
2022/03/24 02:11:48;;;;;;;20.13;12.88;;;7.10;99.90;;;;;;5052998;28;20037;-88
2022/03/24 02:14:14;;;;;;;22.55;12.82;;;7.00;99.90;;;;;;5056671;28;20041;-88
2022/03/24 02:16:41;;;;;;;22.80;13.45;;;9.60;99.90;;;;;;5039694;28;20040;-88
2022/03/24 02:19:16;;;;;;;21.75;13.68;;;8.10;99.90;;;;;;5051307;28;20012;-89
2022/03/24 02:21:43;;;;;;;22.77;13.18;;;8.00;99.90;;;;;;5056643;28;20029;-88
2022/03/24 02:24:10;;;;;;;27.45;13.45;;;6.70;99.90;;;;;;5050385;28;20013;-91
2022/03/24 02:26:37;;;;;;;22.83;13.70;;;6.70;99.90;;;;;;5042909;28;20033;-90
2022/03/24 02:29:07;;;;;;;23.17;12.82;;;6.70;99.90;;;;;;5060545;28;20039;-87
2022/03/24 02:31:52;;;;;;;24.30;13.82;;;8.70;99.90;;;;;;5029755;28;20406;-88
2022/03/24 02:37:10;;;;;;;22.63;12.55;;;6.50;99.90;;;;;;5059487;28;20549;-88
2022/03/24 02:39:38;;;;;;;20.70;12.90;;;6.60;99.90;;;;;;5056093;28;20134;-88
2022/03/24 02:42:05;;;;;;;22.88;12.68;;;9.60;99.90;;;;;;5040635;28;20029;-89
2022/03/24 02:44:31;;;;;;;21.42;13.05;;;;;;;;;;5041989;28;20021;-89
2022/03/24 02:47:01;;;;;;;20.90;13.32;;;6.40;99.90;;;;;;5064954;28;20109;-90
2022/03/24 02:49:32;;;;;;;23.75;13.55;;;6.40;99.90;;;;;;5055799;28;20082;-89
2022/03/24 02:52:00;;;;;;;22.92;13.52;;;6.40;99.90;;;;;;5054898;28;20036;-88
2022/03/24 02:54:26;;;;;;;22.10;12.75;;;6.30;99.90;;;;;;5056734;28;20024;-87
2022/03/24 02:56:54;;;;;;;23.20;12.70;;;6.30;99.90;;;;;;5076023;28;20029;-90
2022/03/24 02:59:20;;;;;;;22.75;12.35;;;;;;;;;;5058803;28;20028;-88
2022/03/24 03:02:00;;;;;;;23.48;13.20;;;6.30;99.90;;;;;;5056587;28;20028;-90
2022/03/24 03:04:34;;;;;;;20.05;12.02;;;5.10;99.90;;;;;;5069965;28;20032;-89
2022/03/24 03:07:02;;;;;;;23.00;12.60;;;6.30;99.90;;;;;;5056012;28;20036;-87
2022/03/24 03:09:28;;;;;;;24.77;13.43;;;;;;;;;;5059503;28;20016;-86
2022/03/24 03:11:56;;;;;;;23.73;12.43;;;;;;;;;;5058136;28;20029;-88
2022/03/24 03:14:22;;;;;;;21.90;13.07;;;;;;;;;;5068003;28;20025;-88
2022/03/24 03:16:48;;;;;;;23.77;13.23;;;;;;;;;;5071129;28;20584;-88
2022/03/24 03:19:17;;;;;;;22.38;14.00;;;6.20;99.90;;;;;;5059145;28;20041;-87
2022/03/24 03:21:44;;;;;;;27.13;15.07;;;;;;;;;;5071188;28;20001;-83
2022/03/24 03:24:11;;;;;;;24.15;13.13;;;;;;;;;;5067201;28;20039;-87
2022/03/24 03:26:39;;;;;;;25.35;13.18;;;6.10;99.90;;;;;;5053898;28;20008;-87
2022/03/24 03:29:06;;;;;;;22.50;13.40;;;4.70;99.90;;;;;;5055572;28;20029;-88
2022/03/24 03:31:34;;;;;;;23.33;12.68;;;;;;;;;;5069091;28;20085;-86
2022/03/24 03:34:01;;;;;;;22.63;13.85;;;6.10;99.90;;;;;;5050444;28;20021;-88
2022/03/24 03:36:30;;;;;;;24.00;13.07;;;;;;;;;;5052205;28;20012;-87
2022/03/24 03:38:56;;;;;;;24.02;13.55;;;;;;;;;;5046785;28;20041;-87
2022/03/24 03:41:22;;;;;;;22.33;13.45;;;6.10;99.90;;;;;;5054030;28;20051;-88
2022/03/24 03:43:49;;;;;;;25.27;13.50;;;6.20;99.90;;;;;;5050176;28;20029;-89
2022/03/24 03:46:16;;;;;;;23.13;12.68;;;8.60;99.90;;;;;;5052642;28;20041;-87
2022/03/24 03:48:42;;;;;;;23.75;12.65;;;;;;;;;;5056941;28;20043;-89
2022/03/24 03:51:08;;;;;;;25.05;13.45;;;5.90;99.90;;;;;;5044836;28;20703;-87
2022/03/24 03:53:35;;;;;;;27.55;13.52;;;5.90;99.90;;;;;;5054464;28;20044;-85
2022/03/24 03:56:03;;;;;;;22.95;13.43;;;5.80;99.90;;;;;;5048612;28;20029;-85
2022/03/24 03:58:29;;;;;;;23.50;12.82;;;5.80;99.90;;;;;;5056745;28;20841;-83
2022/03/24 04:00:58;;;;;;;23.65;13.52;;;7.30;99.90;;;;;;5052456;28;20036;-90
2022/03/24 04:03:25;;;;;;;23.58;12.73;;;5.80;99.90;;;;;;5055823;28;20041;-88
2022/03/24 04:05:58;;;;;;;25.52;12.70;;;5.80;99.90;;;;;;5053406;28;20044;-84
2022/03/24 04:08:24;;;;;;;21.33;12.43;;;;;;;;;;5047270;28;20051;-84
2022/03/24 04:10:50;;;;;;;22.48;13.48;;;;;;;;;;5049220;28;20013;-83
2022/03/24 04:13:20;;;;;;;22.60;13.38;;;5.70;99.90;;;;;;5047888;28;20081;-86
2022/03/24 04:15:46;;;;;;;23.93;14.20;;;5.50;99.90;;;;;;5046788;28;20032;-84
2022/03/24 04:18:13;;;;;;;21.88;12.35;;;3.30;99.90;;;;;;5061057;28;20024;-85
2022/03/24 04:20:39;;;;;;;26.58;13.88;;;;;;;;;;5050143;28;20033;-84
2022/03/24 04:23:05;;;;;;;23.75;13.30;;;;;;;;;;5046557;28;20308;-88
2022/03/24 04:25:32;;;;;;;22.60;12.75;;;5.60;99.90;;;;;;5051583;28;20031;-86
2022/03/24 04:27:58;;;;;;;25.50;13.00;;;5.60;99.90;;;;;;5052414;28;20085;-87
2022/03/24 04:30:27;;;;;;;21.65;12.60;;;;;;;;;;5048411;28;20013;-85
2022/03/24 04:32:57;;;;;;;22.65;12.55;;;5.50;99.90;;;;;;5053864;28;20053;-86
2022/03/24 04:35:22;;;;;;;23.55;13.30;;;6.30;99.90;;;;;;5047667;28;20028;-86
2022/03/24 04:37:49;;;;;;;22.90;12.82;;;5.50;99.90;;;;;;5050633;28;20031;-83
2022/03/24 04:40:17;;;;;;;23.80;13.05;;;5.50;99.90;;;;;;5062085;28;20039;-85
2022/03/24 04:42:45;;;;;;;24.33;13.02;;;5.40;99.90;;;;;;5042620;28;20057;-85
2022/03/24 04:45:11;;;;;;;26.52;13.48;;;;;;;;;;5046499;28;20025;-87
2022/03/24 04:47:37;;;;;;;20.60;12.57;;;;;;;;;;5047637;28;20673;-88
2022/03/24 04:50:04;;;;;;;27.02;13.27;;;5.40;99.90;;;;;;5037942;28;20035;-85
2022/03/24 04:52:30;;;;;;;25.05;13.35;;;;;;;;;;5044560;28;20029;-84
2022/03/24 04:54:58;;;;;;;24.25;12.88;;;;;;;;;;5033077;28;20040;-86
2022/03/24 04:57:25;;;;;;;21.52;12.52;;;;;;;;;;5046725;28;20036;-88
2022/03/24 04:59:51;;;;;;;27.98;12.95;;;;;;;;;;5032545;28;20050;-84
2022/03/24 05:02:17;;;;;;;24.92;13.52;;;5.30;99.90;;;;;;5029028;28;20578;-87
2022/03/24 05:04:43;;;;;;;24.75;13.25;;;5.30;99.90;;;;;;5044285;28;20033;-84
2022/03/24 05:07:12;;;;;;;21.48;13.23;;;5.50;99.90;;;;;;5025554;28;20612;-89
2022/03/24 05:09:38;;;;;;;23.02;13.85;;;;;;;;;;5028767;28;20036;-88
2022/03/24 05:12:05;;;;;;;25.00;13.25;;;5.20;99.90;;;;;;5040809;28;20021;-88
2022/03/24 05:14:31;;;;;;;21.75;12.88;;;;;;;;;;5046322;28;20031;-84
2022/03/24 05:16:58;;;;;;;26.17;15.65;;;5.10;99.90;;;;;;5026110;28;20033;-85
2022/03/24 05:19:24;;;;;;;26.27;13.48;;;;;;;;;;5029489;28;20041;-83
2022/03/24 05:21:51;;;;;;;26.70;13.77;;;5.10;99.90;;;;;;5028775;28;20096;-85
2022/03/24 05:24:17;;;;;;;26.77;13.45;;;;;;;;;;5027416;28;20213;-84
2022/03/24 05:26:43;;;;;;;24.63;13.63;;;;;;;;;;5028211;28;20059;-83
2022/03/24 05:29:09;;;;;;;23.75;12.95;;;;;;;;;;5035958;28;20032;-87
2022/03/24 05:31:36;;;;;;;21.92;12.80;;;;;;;;;;5042252;28;20142;-85
2022/03/24 05:34:03;;;;;;;25.98;13.63;;;;;;;;;;5047023;28;20029;-84
2022/03/24 05:36:29;;;;;;;25.55;13.18;;;5.00;99.90;;;;;;5028886;28;20128;-85
2022/03/24 05:38:55;;;;;;;22.23;13.25;;;7.30;99.90;;;;;;5032563;28;20037;-87
2022/03/24 05:41:20;;;;;;;27.33;14.50;;;4.00;99.90;;;;;;5044163;28;20017;-86
2022/03/24 05:44:06;;;;;;;27.25;14.18;;;;;;;;;;5042907;28;20035;-85
2022/03/24 05:46:37;;;;;;;25.90;14.05;;;5.00;99.90;;;;;;5031665;28;20032;-85
2022/03/24 05:49:06;;;;;;;28.35;13.68;;;5.00;99.90;;;;;;5029332;28;20037;-85
2022/03/24 05:51:32;;;;;;;24.00;13.70;;;;;;;;;;5027028;28;20033;-87
2022/03/24 05:53:58;;;;;;;27.63;13.52;;;5.00;99.90;;;;;;5032440;28;20029;-84
2022/03/24 05:56:26;;;;;;;25.70;13.32;;;6.90;99.90;;;;;;5034545;28;20105;-87
2022/03/24 05:58:52;;;;;;;25.65;12.95;;;;;;;;;;5031174;28;20435;-88
2022/03/24 06:01:20;;;;;;;24.73;13.68;;;5.00;99.90;;;;;;5032837;28;20029;-87
2022/03/24 06:03:50;;;;;;;27.05;13.52;;;5.90;99.90;;;;;;5049737;28;20025;-86
2022/03/24 06:06:20;;;;;;;25.10;13.48;;;7.80;99.90;;;;;;5039847;28;20039;-85
2022/03/24 06:08:52;;;;;;;27.00;14.10;;;7.40;99.90;;;;;;5064038;28;20026;-87
2022/03/24 06:11:19;;;;;;;23.85;13.10;;;5.10;99.90;;;;;;5073233;28;20081;-87
2022/03/24 06:13:46;;;;;;;30.15;13.73;;;7.30;99.90;;;;;;5045528;28;20026;-89
2022/03/24 06:16:15;;;;;;;24.48;13.85;;;4.90;99.90;;;;;;5034391;28;20025;-88
2022/03/24 06:18:42;;;;;;;27.40;13.50;;;;;;;;;;5040323;28;20128;-87
2022/03/24 06:21:10;;;;;;;23.27;12.75;;;5.20;99.90;;;;;;5037925;28;20025;-84
2022/03/24 06:23:36;;;;;;;25.02;13.88;;;5.20;99.90;;;;;;5043236;28;20027;-85
2022/03/24 06:26:02;;;;;;;24.75;14.45;;;6.90;99.90;;;;;;5040722;28;20036;-83
2022/03/24 06:28:28;;;;;;;24.45;13.73;;;5.30;99.90;;;;;;5057018;28;20041;-84
2022/03/24 06:30:54;;;;;;;24.25;13.73;;;5.30;99.90;;;;;;5041344;28;20571;-84
2022/03/24 06:33:20;;;;;;;23.73;13.77;;;4.10;99.90;;;;;;5037944;28;20090;-83
2022/03/24 06:35:48;;;;;;;24.80;13.70;;;7.00;99.90;;;;;;5049739;28;20122;-85
2022/03/24 06:38:16;;;;;;;28.60;13.73;;;7.00;99.90;;;;;;5033156;28;20042;-85
2022/03/24 06:40:42;;;;;;;25.98;13.88;;;5.70;99.90;;;;;;5034688;28;20036;-85
2022/03/24 06:43:09;;;;;;;32.13;14.88;;;5.60;99.90;;;;;;5041934;28;20029;-84
2022/03/24 06:45:36;;;;;;;64.32;15.93;;;;;;;;;;5058240;28;20033;-84
2022/03/24 06:48:02;;;;;;;25.58;14.40;;;;;;;;;;5047137;28;20025;-86
2022/03/24 06:50:28;;;;;;;29.88;13.73;;;;;;;;;;5046996;28;20025;-85
2022/03/24 06:52:58;;;;;;;25.83;14.48;;;6.00;99.90;;;;;;5035284;28;20025;-85
2022/03/24 06:55:27;;;;;;;27.30;14.95;;;7.20;99.90;;;;;;5046323;28;20581;-84
2022/03/24 06:57:55;;;;;;;32.58;14.70;;;;;;;;;;5043120;28;20033;-85
2022/03/24 07:00:21;;;;;;;34.97;15.00;;;;;;;;;;5051180;28;20084;-88
2022/03/24 07:02:50;;;;;;;29.55;14.75;;;6.40;99.90;;;;;;5050925;28;20021;-86
2022/03/24 07:05:17;;;;;;;25.25;14.25;;;6.80;99.90;;;;;;5053369;28;20021;-89
2022/03/24 07:07:44;;;;;;;51.53;24.08;;;6.60;99.90;;;;;;5052341;28;20025;-90
2022/03/24 07:10:10;;;;;;;27.77;14.32;;;;;;;;;;5062850;28;20099;-91
2022/03/24 07:12:36;;;;;;;26.90;13.80;;;6.90;99.90;;;;;;5070195;28;20383;-89
2022/03/24 07:15:04;;;;;;;25.50;13.60;;;7.20;99.90;;;;;;5057776;28;20040;-91
2022/03/24 07:17:29;;;;;;;26.20;14.55;;;7.20;99.90;;;;;;5053378;28;20032;-89
2022/03/24 07:20:01;;;;;;;31.27;14.40;;;8.80;99.90;;;;;;5057534;28;20443;-90
2022/03/24 07:22:37;;;;;;;29.23;14.00;;;7.30;99.90;;;;;;5053614;28;20044;-88
2022/03/24 07:25:11;;;;;;;25.52;14.07;;;7.50;99.90;;;;;;5061180;28;20037;-92
2022/03/24 07:27:38;;;;;;;27.83;13.95;;;9.20;99.90;;;;;;5051670;28;20028;-85
2022/03/24 07:30:09;;;;;;;24.88;13.90;;;7.70;99.90;;;;;;5059596;28;20029;-88
2022/03/24 07:32:36;;;;;;;28.17;13.40;;;6.10;99.90;;;;;;5061321;28;20023;-89
2022/03/24 07:35:05;;;;;;;27.92;14.20;;;8.00;99.90;;;;;;5042435;28;20013;-88
2022/03/24 07:37:31;;;;;;;26.05;13.93;;;;;;;;;;5056502;28;20013;-85
2022/03/24 07:40:00;;;;;;;31.00;15.00;;;8.80;99.90;;;;;;5072037;28;20037;-87
2022/03/24 07:42:28;;;;;;;24.42;14.70;;;8.40;99.90;;;;;;5057333;28;20032;-88
2022/03/24 07:44:54;;;;;;;30.10;15.18;;;8.50;99.90;;;;;;5054081;28;20026;-88
2022/03/24 07:47:20;;;;;;;30.67;14.77;;;7.10;99.70;;;;;;5056559;28;20097;-87
2022/03/24 07:49:48;;;;;;;24.63;15.00;;;9.30;99.60;;;;;;5073465;28;20029;-89
2022/03/24 07:52:17;;;;;;;27.70;14.80;;;8.80;98.70;;;;;;5056590;28;20013;-88
2022/03/24 07:55:06;;;;;;;32.15;15.02;;;11.20;99.90;;;;;;5068252;28;20048;-86
2022/03/24 07:57:32;;;;;;;30.02;15.48;;;9.20;97.50;;;;;;5061338;28;20116;-87
2022/03/24 07:59:59;;;;;;;32.47;15.57;;;9.70;97.80;;;;;;5055570;28;20025;-85
2022/03/24 08:02:25;;;;;;;31.80;15.45;;;9.50;96.20;;;;;;5052048;28;20351;-86
2022/03/24 08:04:53;;;;;;;32.95;16.30;;;9.70;96.40;;;;;;5055481;28;20028;-87
2022/03/24 08:07:23;;;;;;;34.97;15.52;;;10.20;95.90;;;;;;5057729;28;20055;-86
2022/03/24 08:09:50;;;;;;;37.70;17.00;;;9.70;95.50;;;;;;5057423;28;20096;-85
2022/03/24 08:12:16;;;;;;;33.08;15.38;;;10.60;95.30;;;;;;5066540;28;20067;-90
2022/03/24 08:14:42;;;;;;;32.70;15.52;;;9.80;95.10;;;;;;5055925;28;20013;-88
2022/03/24 08:17:08;;;;;;;27.45;14.30;;;12.10;95.40;;;;;;5071797;28;20013;-88
2022/03/24 08:19:34;;;;;;;33.92;15.45;;;10.30;94.00;;;;;;5060117;28;20040;-89
2022/03/24 08:21:59;;;;;;;33.70;16.50;;;11.00;92.50;;;;;;5058359;28;20049;-87
2022/03/24 08:24:28;;;;;;;38.85;16.45;;;10.70;91.60;;;;;;5053767;28;20013;-84
2022/03/24 08:26:53;;;;;;;30.63;16.67;;;10.70;91.20;;;;;;5055124;28;20029;-88
2022/03/24 08:29:19;;;;;;;31.88;16.92;;;11.00;91.00;;;;;;5047868;28;20040;-89
2022/03/24 08:31:45;;;;;;;30.25;15.82;;;11.20;90.50;;;;;;5042542;28;20033;-90
2022/03/24 08:34:12;;;;;;;36.75;15.73;;;11.40;90.20;;;;;;5060700;28;20051;-88
2022/03/24 08:36:43;;;;;;;31.95;15.77;;;11.40;86.20;;;;;;5050606;28;20025;-88
2022/03/24 08:39:09;;;;;;;35.25;16.15;;;11.70;86.10;;;;;;5049720;28;20036;-89
2022/03/24 08:41:35;;;;;;;36.35;17.02;;;11.80;84.30;;;;;;5049958;28;20105;-89
2022/03/24 08:44:04;;;;;;;27.52;16.25;;;11.60;82.50;;;;;;5023582;28;20106;-88
2022/03/24 08:46:29;;;;;;;33.08;18.10;;;13.60;84.50;;;;;;5041551;28;20028;-89
2022/03/24 08:48:55;;;;;;;34.15;16.35;;;12.40;81.40;;;;;;5042602;28;20079;-89
2022/03/24 08:51:22;;;;;;;38.25;17.33;;;13.80;80.60;;;;;;5034411;28;20025;-89
2022/03/24 08:53:48;;;;;;;41.25;18.25;;;12.80;77.30;;;;;;5050792;28;20021;-89
2022/03/24 08:56:14;;;;;;;32.17;17.45;;;13.60;77.10;;;;;;5067671;28;20132;-89
2022/03/24 08:58:40;;;;;;;37.58;17.10;;;12.90;75.10;;;;;;5050414;28;20028;-89
2022/03/24 09:01:06;;;;;;;35.25;16.73;;;13.20;76.40;;;;;;5055147;28;20017;-88
2022/03/24 09:03:31;;;;;;;33.58;17.42;;;13.40;76.20;;;;;;5055278;28;20089;-88
2022/03/24 09:05:57;;;;;;;34.78;18.13;;;13.30;73.90;;;;;;5041177;28;20030;-85
2022/03/24 09:08:23;;;;;;;31.73;16.63;;;13.80;72.50;;;;;;5052074;28;20036;-88
2022/03/24 09:10:50;;;;;;;31.83;17.98;;;14.90;70.90;;;;;;5053733;28;20021;-85
2022/03/24 09:13:16;;;;;;;30.10;17.48;;;14.10;72.70;;;;;;5048999;28;20021;-88
2022/03/24 09:15:44;;;;;;;31.45;17.35;;;14.20;73.70;;;;;;5064898;28;20020;-90
2022/03/24 09:18:10;;;;;;;33.10;17.25;;;16.00;75.20;;;;;;5047706;28;20072;-89
2022/03/24 09:20:39;;;;;;;28.40;16.85;;;14.50;71.40;;;;;;5045142;28;20032;-91
2022/03/24 09:23:08;;;;;;;35.08;17.23;;;14.70;69.70;;;;;;5049608;28;20029;-88
2022/03/24 09:25:38;;;;;;;29.92;16.30;;;15.00;65.90;;;;;;5043093;28;20086;-90
2022/03/24 09:28:04;;;;;;;33.83;16.80;;;15.20;63.00;;;;;;5039051;28;20021;-87
2022/03/24 09:30:30;;;;;;;31.55;17.02;;;15.30;64.40;;;;;;5055998;28;20394;-89
2022/03/24 09:32:56;;;;;;;32.50;17.35;;;15.60;62.20;;;;;;5053649;28;20033;-91
2022/03/24 09:35:21;;;;;;;27.77;15.82;;;16.50;59.80;;;;;;5056326;28;20311;-89
2022/03/24 09:37:47;;;;;;;31.10;17.90;;;15.90;60.50;;;;;;5037764;28;20029;-90
2022/03/24 09:40:13;;;;;;;31.70;16.17;;;16.10;59.90;;;;;;5034044;28;20029;-90
2022/03/24 09:42:40;;;;;;;26.85;16.77;;;16.30;57.90;;;;;;5054464;28;20295;-87
2022/03/24 09:45:07;;;;;;;33.97;16.88;;;16.50;57.30;;;;;;5039909;28;20036;-88
2022/03/24 09:47:34;;;;;;;31.00;16.52;;;16.60;57.40;;;;;;5034702;28;20021;-89
2022/03/24 09:49:59;;;;;;;28.92;16.20;;;16.60;55.10;;;;;;5046163;28;20029;-88
2022/03/24 09:52:26;;;;;;;28.75;16.10;;;16.90;55.30;;;;;;5029693;28;20040;-90
2022/03/24 09:54:53;;;;;;;29.30;16.17;;;17.10;55.40;;;;;;5029992;28;20025;-92
2022/03/24 09:57:20;;;;;;;30.65;16.90;;;16.80;54.50;;;;;;5051852;28;20189;-92
2022/03/24 09:59:46;;;;;;;25.23;14.70;;;17.30;54.00;;;;;;5037261;28;20033;-90
2022/03/24 10:02:13;;;;;;;25.33;13.73;;;17.50;51.00;;;;;;5039607;28;20146;-88
2022/03/24 10:05:17;;;;;;;27.17;13.63;;;17.50;51.00;;;;;;5037688;28;20025;-86
2022/03/24 10:07:46;;;;;;;23.20;13.70;;;17.60;51.50;;;;;;4992066;28;20067;-89
2022/03/24 10:10:27;;;;;;;20.73;13.38;;;17.70;52.30;;;;;;5051467;28;20033;-89
2022/03/24 10:12:53;;;;;;;22.67;14.70;;;17.70;50.50;;;;;;5052593;28;20163;-91
2022/03/24 10:15:20;;;;;;;27.23;14.35;;;17.70;49.60;;;;;;5037817;28;20056;-88
2022/03/24 10:17:52;;;;;;;24.20;14.13;;;17.80;51.90;;;;;;5055961;28;20056;-92
2022/03/24 10:20:18;;;;;;;27.25;15.32;;;17.90;49.80;;;;;;5036733;28;20036;-90
2022/03/24 10:23:05;;;;;;;25.25;14.90;;;17.90;49.00;;;;;;5039194;28;20022;-89
2022/03/24 10:25:33;;;;;;;23.65;14.88;;;18.10;49.70;;;;;;5045694;28;20013;-87
2022/03/24 10:28:12;;;;;;;25.05;15.77;;;18.00;48.30;;;;;;5042687;28;20103;-89
2022/03/24 10:30:49;;;;;;;23.85;13.35;;;17.70;47.10;;;;;;5058269;28;20166;-91
2022/03/24 10:33:37;;;;;;;30.17;15.07;;;18.20;47.80;;;;;;5045173;28;20051;-89
2022/03/24 10:36:08;;;;;;;26.45;13.45;;;18.40;48.70;;;;;;5059812;28;20021;-90
2022/03/24 10:38:35;;;;;;;27.58;14.55;;;18.50;47.60;;;;;;5037303;28;20037;-89
2022/03/24 10:41:25;;;;;;;25.75;13.30;;;18.90;49.30;;;;;;5035093;28;20021;-89
2022/03/24 10:43:55;;;;;;;20.85;10.90;;;18.70;49.00;;;;;;5048550;28;20021;-88
2022/03/24 10:46:23;;;;;;;22.27;11.60;;;18.70;47.50;;;;;;5039238;28;20024;-90
2022/03/24 10:48:51;;;;;;;17.15;9.77;;;18.70;46.60;;;;;;5037052;28;20029;-89
2022/03/24 10:51:28;;;;;;;21.92;10.13;;;18.60;46.10;;;;;;5037477;28;20033;-90
2022/03/24 10:54:10;;;;;;;20.30;12.05;;;18.70;46.00;;;;;;5033690;28;20021;-91
2022/03/24 10:56:45;;;;;;;19.02;12.98;;;18.80;46.30;;;;;;5041926;28;20029;-88
2022/03/24 10:59:11;;;;;;;20.98;12.88;;;18.00;47.30;;;;;;5038650;28;20052;-89
2022/03/24 11:01:46;;;;;;;19.50;12.35;;;18.90;48.00;;;;;;5033795;28;20032;-90
2022/03/24 11:04:13;;;;;;;19.40;11.27;;;19.00;45.40;;;;;;5032340;28;20116;-90
2022/03/24 11:06:48;;;;;;;24.88;12.05;;;19.10;46.20;;;;;;5034284;28;20514;-88
2022/03/24 11:09:26;;;;;;;18.83;10.05;;;19.20;45.40;;;;;;5030954;28;20406;-89
2022/03/24 11:12:27;;;;;;;19.45;10.45;;;19.30;44.90;;;;;;5039098;28;20363;-87
2022/03/24 11:15:03;;;;;;;17.98;9.90;;;19.40;43.70;;;;;;5032412;28;20029;-89
2022/03/24 11:17:32;;;;;;;23.73;13.45;;;19.20;43.30;;;;;;5045422;28;20029;-88
2022/03/24 11:20:20;;;;;;;23.20;13.45;;;19.20;44.10;;;;;;5054706;28;20021;-90
2022/03/24 11:22:54;;;;;;;17.60;11.55;;;19.60;45.40;;;;;;5044342;28;20036;-90
2022/03/24 11:25:21;;;;;;;17.35;11.38;;;19.40;44.50;;;;;;5040388;28;20055;-90
2022/03/24 11:27:48;;;;;;;20.83;11.40;;;19.50;44.90;;;;;;5052958;28;20013;-90
2022/03/24 11:30:18;;;;;;;21.67;11.50;;;19.50;43.60;;;;;;5037391;28;20030;-89
2022/03/24 11:32:52;;;;;;;26.08;13.40;;;19.60;44.20;;;;;;5033587;28;20056;-89
2022/03/24 11:35:19;;;;;;;20.50;13.48;;;19.80;44.10;;;;;;5035312;28;20059;-90
2022/03/24 11:37:45;;;;;;;25.77;13.25;;;19.50;44.70;;;;;;5042840;28;20024;-88
2022/03/24 11:40:18;;;;;;;24.40;13.40;;;19.60;45.80;;;;;;5040852;28;20021;-89
2022/03/24 11:42:55;;;;;;;22.73;12.73;;;19.80;43.60;;;;;;5040281;28;20021;-90
2022/03/24 11:45:32;;;;;;;21.85;13.23;;;19.70;43.50;;;;;;5058076;28;20029;-89
2022/03/24 11:48:08;;;;;;;19.77;12.25;;;19.60;44.50;;;;;;5028623;28;20075;-89
2022/03/24 11:50:41;;;;;;;21.70;12.23;;;19.70;43.50;;;;;;5048862;28;20029;-90
2022/03/24 11:53:19;;;;;;;24.63;13.23;;;20.60;44.60;;;;;;5037232;28;20028;-89
2022/03/24 11:56:03;;;;;;;22.10;12.73;;;19.90;43.70;;;;;;5031650;22;20049;-89
2022/03/24 11:58:56;;;;;;;24.10;12.25;;;19.90;42.60;;;;;;5031389;28;20068;-89
2022/03/24 12:01:24;;;;;;;22.63;13.02;;;20.00;43.40;;;;;;5012717;28;20093;-89
2022/03/24 12:04:00;;;;;;;21.70;12.15;;;20.20;43.60;;;;;;5015694;28;20112;-88
2022/03/24 12:06:41;;;;;;;25.80;13.45;;;20.30;42.70;;;;;;5031467;28;20117;-89
2022/03/24 12:09:14;;;;;;;22.25;12.60;;;20.20;41.70;;;;;;5010169;28;20030;-88
2022/03/24 12:11:43;;;;;;;22.48;12.70;;;20.30;41.60;;;;;;5033838;28;20033;-87
2022/03/24 12:14:21;;;;;;;19.52;12.00;;;20.30;40.90;;;;;;5028858;28;20476;-88
2022/03/24 12:16:50;;;;;;;21.23;12.35;;;20.30;41.30;;;;;;5013645;28;20030;-87
2022/03/24 12:19:43;;;;;;;20.83;12.60;;;20.30;42.00;;;;;;5018448;28;20021;-89
2022/03/24 12:22:32;;;;;;;20.98;12.20;;;20.50;42.10;;;;;;5018561;28;20028;-90
2022/03/24 12:25:01;;;;;;;24.70;12.25;;;20.60;40.00;;;;;;5019822;28;20450;-88
2022/03/24 12:27:28;;;;;;;19.35;12.23;;;20.40;41.90;;;;;;5014232;28;20029;-87
2022/03/24 12:30:15;;;;;;;20.48;12.57;;;20.40;40.20;;;;;;5000992;28;20096;-87
2022/03/24 12:32:43;;;;;;;22.88;13.25;;;20.50;40.70;;;;;;5016444;28;20038;-88
2022/03/24 12:35:29;;;;;;;21.88;11.95;;;20.60;40.90;;;;;;5013912;28;20052;-88
2022/03/24 12:37:55;;;;;;;21.70;12.52;;;20.50;41.30;;;;;;5034320;28;20021;-88
2022/03/24 12:40:21;;;;;;;20.98;12.30;;;21.50;41.30;;;;;;5018127;28;20029;-88
2022/03/24 12:42:53;;;;;;;21.55;12.57;;;20.50;41.50;;;;;;5015149;28;20414;-89
2022/03/24 12:45:27;;;;;;;21.67;14.18;;;20.40;39.80;;;;;;5021161;28;20041;-89
2022/03/24 12:48:07;;;;;;;24.58;13.85;;;20.70;40.00;;;;;;5010559;28;20065;-86
2022/03/24 12:50:42;;;;;;;21.55;13.68;;;20.00;40.30;;;;;;5019047;28;20029;-89
2022/03/24 12:53:08;;;;;;;20.27;12.57;;;20.50;41.60;;;;;;5029718;28;20029;-87
2022/03/24 12:55:39;;;;;;;26.48;13.80;;;20.50;40.90;;;;;;5015576;28;20064;-87
2022/03/24 12:58:13;;;;;;;23.92;14.13;;;20.60;41.40;;;;;;5019447;28;20036;-89
2022/03/24 13:00:42;;;;;;;23.02;13.30;;;20.30;41.40;;;;;;5018131;28;20029;-89
2022/03/24 13:03:09;;;;;;;23.85;13.38;;;20.50;41.30;;;;;;5017912;28;20018;-88
2022/03/24 13:05:37;;;;;;;22.52;13.73;;;20.60;40.20;;;;;;5016598;28;20033;-88